createdAt,value
2022-07-28T00:01:25.041Z,15.90
2022-07-28T00:03:51.852Z,15.90
2022-07-28T00:06:18.460Z,15.80
2022-07-28T00:08:45.104Z,15.60
2022-07-28T00:11:11.868Z,15.60
2022-07-28T00:13:38.549Z,15.50
2022-07-28T00:16:07.038Z,15.40
2022-07-28T00:18:33.809Z,15.40
2022-07-28T00:21:01.457Z,15.40
2022-07-28T00:23:37.622Z,15.40
2022-07-28T00:26:07.851Z,15.40
2022-07-28T00:28:34.585Z,15.30
2022-07-28T00:31:07.856Z,15.30
2022-07-28T00:33:37.194Z,15.20
2022-07-28T00:36:04.149Z,15.00
2022-07-28T00:38:30.755Z,14.90
2022-07-28T00:41:12.331Z,15.00
2022-07-28T00:43:43.757Z,15.00
2022-07-28T00:46:11.397Z,15.00
2022-07-28T00:48:44.670Z,14.90
2022-07-28T00:51:11.799Z,14.80
2022-07-28T00:53:38.893Z,14.70
2022-07-28T00:56:07.208Z,14.60
2022-07-28T00:58:35.450Z,14.50
2022-07-28T01:01:02.207Z,14.30
2022-07-28T01:03:29.458Z,14.30
2022-07-28T01:05:58.831Z,14.30
2022-07-28T01:08:43.513Z,14.40
2022-07-28T01:11:24.757Z,14.40
2022-07-28T01:14:08.675Z,14.40
2022-07-28T01:16:45.232Z,14.50
2022-07-28T01:19:32.326Z,14.50
2022-07-28T01:22:01.667Z,14.50
2022-07-28T01:24:39.555Z,14.50
2022-07-28T01:27:10.696Z,14.50
2022-07-28T01:29:52.383Z,14.50
2022-07-28T01:32:28.422Z,14.50
2022-07-28T01:35:05.375Z,14.50
2022-07-28T01:37:36.459Z,14.50
2022-07-28T01:40:06.875Z,14.60
2022-07-28T01:42:41.420Z,14.60
2022-07-28T01:45:09.018Z,14.60
2022-07-28T01:47:37.016Z,14.60
2022-07-28T01:50:10.115Z,14.50
2022-07-28T01:52:38.080Z,14.50
2022-07-28T01:55:06.368Z,14.50
2022-07-28T01:57:33.797Z,14.60
2022-07-28T02:00:01.698Z,14.60
2022-07-28T02:02:30.856Z,14.70
2022-07-28T02:04:59.602Z,14.70
2022-07-28T02:07:27.465Z,14.70
2022-07-28T02:09:56.597Z,14.70
2022-07-28T02:12:26.114Z,14.70
2022-07-28T02:14:53.749Z,14.70
2022-07-28T02:17:25.430Z,14.70
2022-07-28T02:19:53.619Z,14.70
2022-07-28T02:22:21.746Z,14.70
2022-07-28T02:24:49.182Z,14.70
2022-07-28T02:27:22.257Z,14.70
2022-07-28T02:29:55.763Z,14.70
2022-07-28T02:32:28.787Z,14.70
2022-07-28T02:35:05.036Z,14.70
2022-07-28T02:37:37.496Z,14.70
2022-07-28T02:40:05.969Z,14.70
2022-07-28T02:42:35.053Z,14.60
2022-07-28T02:45:05.196Z,14.50
2022-07-28T02:47:38.501Z,14.60
2022-07-28T02:50:06.707Z,14.60
2022-07-28T02:52:34.409Z,14.60
2022-07-28T02:55:02.505Z,14.40
2022-07-28T02:57:30.649Z,14.40
2022-07-28T02:59:58.271Z,14.30
2022-07-28T03:02:25.799Z,14.20
2022-07-28T03:04:59.519Z,14.20
2022-07-28T03:07:31.391Z,14.30
2022-07-28T03:09:59.144Z,14.30
2022-07-28T03:12:26.665Z,14.30
2022-07-28T03:14:53.411Z,14.20
2022-07-28T03:17:20.327Z,14.20
2022-07-28T03:19:47.096Z,14.20
2022-07-28T03:22:14.360Z,14.30
2022-07-28T03:24:47.843Z,14.30
2022-07-28T03:27:26.032Z,14.30
2022-07-28T03:30:04.497Z,14.30
2022-07-28T03:32:34.291Z,14.30
2022-07-28T03:35:01.098Z,14.30
2022-07-28T03:37:40.151Z,14.30
2022-07-28T03:40:10.781Z,14.30
2022-07-28T03:42:38.543Z,14.20
2022-07-28T03:45:06.587Z,14.20
2022-07-28T03:47:33.305Z,14.20
2022-07-28T03:49:59.922Z,14.20
2022-07-28T03:52:26.751Z,14.20
2022-07-28T03:54:53.566Z,14.20
2022-07-28T03:57:20.163Z,14.20
2022-07-28T03:59:46.805Z,14.20
2022-07-28T04:02:13.420Z,14.20
2022-07-28T04:04:40.046Z,14.20
2022-07-28T04:07:06.693Z,14.20
2022-07-28T04:09:34.657Z,14.20
2022-07-28T04:12:01.382Z,14.20
2022-07-28T04:14:27.957Z,14.20
2022-07-28T04:16:54.623Z,14.20
2022-07-28T04:19:22.781Z,14.20
2022-07-28T04:21:49.409Z,14.20
2022-07-28T04:24:16.279Z,14.20
2022-07-28T04:26:44.210Z,14.30
2022-07-28T04:29:10.960Z,14.20
2022-07-28T04:31:37.613Z,14.10
2022-07-28T04:34:04.433Z,13.90
2022-07-28T04:36:31.189Z,13.80
2022-07-28T04:38:59.230Z,13.80
2022-07-28T04:41:27.126Z,13.80
2022-07-28T04:43:53.756Z,13.90
2022-07-28T04:46:20.531Z,14.00
2022-07-28T04:48:47.293Z,14.00
2022-07-28T04:51:13.905Z,14.10
2022-07-28T04:53:40.970Z,14.20
2022-07-28T04:56:07.621Z,14.30
2022-07-28T04:58:34.281Z,14.30
2022-07-28T05:01:01.956Z,14.40
2022-07-28T05:03:31.604Z,14.40
2022-07-28T05:06:02.408Z,14.50
2022-07-28T05:08:29.008Z,14.50
2022-07-28T05:10:57.057Z,14.60
2022-07-28T05:13:24.257Z,14.60
2022-07-28T05:15:51.158Z,14.60
2022-07-28T05:18:17.905Z,14.60
2022-07-28T05:20:44.517Z,14.60
2022-07-28T05:23:12.674Z,14.60
2022-07-28T05:25:39.422Z,14.60
2022-07-28T05:28:05.988Z,14.70
2022-07-28T05:30:32.599Z,14.70
2022-07-28T05:33:01.224Z,14.80
2022-07-28T05:35:27.908Z,14.90
2022-07-28T05:37:56.386Z,15.00
2022-07-28T05:40:23.035Z,15.10
2022-07-28T05:42:49.676Z,15.20
2022-07-28T05:45:17.583Z,15.30
2022-07-28T05:47:50.791Z,15.40
2022-07-28T05:50:19.014Z,15.40
2022-07-28T05:52:49.283Z,15.50
2022-07-28T05:55:16.144Z,15.60
2022-07-28T05:57:43.391Z,15.70
2022-07-28T06:00:15.653Z,15.70
2022-07-28T06:02:45.484Z,15.70
2022-07-28T06:05:13.280Z,15.70
2022-07-28T06:07:43.296Z,15.70
2022-07-28T06:10:19.448Z,15.70
2022-07-28T06:12:48.783Z,15.80
2022-07-28T06:15:20.712Z,15.70
2022-07-28T06:17:48.365Z,15.80
2022-07-28T06:20:15.120Z,15.90
2022-07-28T06:22:48.610Z,15.90
2022-07-28T06:25:22.984Z,15.90
2022-07-28T06:27:51.937Z,15.90
2022-07-28T06:33:11.735Z,15.80
2022-07-28T06:35:46.491Z,15.80
2022-07-28T06:38:17.378Z,15.80
2022-07-28T06:40:44.103Z,15.90
2022-07-28T06:43:13.225Z,16.00
2022-07-28T06:45:40.565Z,16.10
2022-07-28T06:48:13.606Z,16.20
2022-07-28T06:50:41.006Z,16.20
2022-07-28T06:53:07.652Z,16.20
2022-07-28T06:55:35.774Z,16.20
2022-07-28T06:58:03.970Z,16.30
2022-07-28T07:00:31.016Z,16.40
2022-07-28T07:02:57.729Z,16.50
2022-07-28T07:08:17.437Z,16.50
2022-07-28T07:10:44.033Z,16.60
2022-07-28T07:13:10.759Z,16.60
2022-07-28T07:15:40.673Z,16.70
2022-07-28T07:18:07.667Z,16.80
2022-07-28T07:20:34.268Z,17.00
2022-07-28T07:23:00.982Z,17.10
2022-07-28T07:25:27.674Z,17.00
2022-07-28T07:27:54.681Z,16.90
2022-07-28T07:30:21.389Z,17.00
2022-07-28T07:32:48.968Z,16.90
2022-07-28T07:35:15.820Z,16.90
2022-07-28T07:37:42.459Z,17.00
2022-07-28T07:40:09.524Z,17.10
2022-07-28T07:42:36.392Z,17.20
2022-07-28T07:45:03.690Z,17.20
2022-07-28T07:47:31.061Z,17.30
2022-07-28T07:49:57.659Z,17.30
2022-07-28T07:55:16.741Z,17.30
2022-07-28T07:57:44.660Z,17.30
2022-07-28T08:00:29.257Z,17.30
2022-07-28T08:02:57.138Z,17.40
2022-07-28T08:05:35.114Z,17.50
2022-07-28T08:08:03.604Z,17.50
2022-07-28T08:10:30.315Z,17.60
2022-07-28T08:12:56.953Z,17.70
2022-07-28T08:15:23.600Z,17.90
2022-07-28T08:17:50.198Z,18.00
2022-07-28T08:20:16.841Z,18.10
2022-07-28T08:22:51.261Z,18.10
2022-07-28T08:25:18.566Z,18.10
2022-07-28T08:27:45.232Z,18.00
2022-07-28T08:30:15.261Z,18.10
2022-07-28T08:32:46.731Z,18.10
2022-07-28T08:35:39.100Z,18.20
2022-07-28T08:38:06.272Z,18.30
2022-07-28T08:40:34.910Z,18.30
2022-07-28T08:43:04.840Z,18.40
2022-07-28T08:45:37.084Z,18.30
2022-07-28T08:48:08.726Z,18.40
2022-07-28T08:50:37.861Z,18.60
2022-07-28T08:53:06.219Z,18.60
2022-07-28T08:55:35.652Z,18.50
2022-07-28T08:58:03.291Z,18.70
2022-07-28T09:00:30.236Z,18.70
2022-07-28T09:02:57.645Z,18.40
2022-07-28T09:05:24.764Z,18.30
2022-07-28T09:07:56.092Z,17.90
2022-07-28T09:10:23.029Z,17.90
2022-07-28T09:12:51.483Z,18.00
2022-07-28T09:15:18.165Z,18.20
2022-07-28T09:17:45.024Z,18.30
2022-07-28T09:20:13.281Z,18.20
2022-07-28T09:23:00.428Z,18.30
2022-07-28T09:25:27.693Z,18.40
2022-07-28T09:27:55.117Z,18.60
2022-07-28T09:33:42.225Z,18.90
2022-07-28T09:36:15.593Z,19.10
2022-07-28T09:38:45.512Z,19.40
2022-07-28T09:41:12.191Z,19.60
2022-07-28T09:43:44.473Z,19.40
2022-07-28T09:46:21.419Z,19.40
2022-07-28T09:48:59.919Z,19.50
2022-07-28T09:51:33.308Z,19.20
2022-07-28T09:54:26.510Z,19.00
2022-07-28T09:56:53.683Z,19.10
2022-07-28T09:59:23.244Z,19.30
2022-07-28T10:01:51.362Z,19.40
2022-07-28T10:04:34.381Z,19.20
2022-07-28T10:07:05.617Z,19.10
2022-07-28T10:09:33.123Z,19.30
2022-07-28T10:12:22.162Z,19.50
2022-07-28T10:14:51.888Z,19.80
2022-07-28T10:17:35.128Z,20.00
2022-07-28T10:20:07.197Z,20.30
2022-07-28T10:22:42.933Z,20.30
2022-07-28T10:25:12.537Z,20.00
2022-07-28T10:27:42.137Z,19.90
2022-07-28T10:30:09.694Z,19.90
2022-07-28T10:32:42.830Z,19.70
2022-07-28T10:35:17.546Z,19.60
2022-07-28T10:37:57.046Z,19.70
2022-07-28T10:40:29.641Z,19.70
2022-07-28T10:42:57.221Z,19.80
2022-07-28T10:45:32.556Z,19.60
2022-07-28T10:48:09.102Z,19.60
2022-07-28T10:50:38.907Z,19.70
2022-07-28T10:53:07.432Z,19.90
2022-07-28T10:55:54.969Z,19.90
2022-07-28T10:58:43.855Z,20.00
2022-07-28T11:01:47.528Z,20.10
2022-07-28T11:04:47.813Z,20.30
2022-07-28T11:07:16.764Z,20.20
2022-07-28T11:09:44.474Z,20.20
2022-07-28T11:12:15.196Z,20.30
2022-07-28T11:14:43.017Z,20.40
2022-07-28T11:17:11.283Z,20.30
2022-07-28T11:19:55.861Z,20.20
2022-07-28T11:22:32.733Z,20.20
2022-07-28T11:25:18.501Z,20.00
2022-07-28T11:27:51.349Z,19.90
2022-07-28T11:30:28.609Z,20.10
2022-07-28T11:32:55.310Z,20.10
2022-07-28T11:35:25.375Z,20.30
2022-07-28T11:38:01.324Z,20.60
2022-07-28T11:40:48.794Z,20.60
2022-07-28T11:43:27.909Z,20.60
2022-07-28T11:46:05.693Z,20.80
2022-07-28T11:48:41.838Z,21.00
2022-07-28T11:51:10.481Z,21.00
2022-07-28T11:53:37.799Z,20.90
2022-07-28T11:56:06.685Z,20.70
2022-07-28T11:58:33.284Z,20.70
2022-07-28T12:04:14.397Z,21.30
2022-07-28T12:06:42.848Z,21.00
2022-07-28T12:09:11.002Z,20.90
2022-07-28T12:11:41.107Z,20.90
2022-07-28T12:14:17.319Z,21.00
2022-07-28T12:16:50.669Z,21.10
2022-07-28T12:19:20.609Z,21.20
2022-07-28T12:21:56.577Z,21.30
2022-07-28T12:24:30.638Z,21.20
2022-07-28T12:27:00.157Z,21.10
2022-07-28T12:29:32.165Z,21.10
2022-07-28T12:32:05.401Z,21.20
2022-07-28T12:34:34.983Z,21.00
2022-07-28T12:37:04.044Z,20.90
2022-07-28T12:39:34.059Z,20.70
2022-07-28T12:42:05.332Z,20.60
2022-07-28T12:44:33.889Z,20.70
2022-07-28T12:47:01.033Z,20.80
2022-07-28T12:49:27.783Z,20.70
2022-07-28T12:51:54.781Z,20.70
2022-07-28T12:54:37.813Z,20.80
2022-07-28T12:57:04.685Z,21.00
2022-07-28T12:59:33.733Z,21.10
2022-07-28T13:02:02.737Z,21.20
2022-07-28T13:04:46.630Z,21.10
2022-07-28T13:07:25.468Z,21.20
2022-07-28T13:10:04.748Z,21.40
2022-07-28T13:12:31.836Z,21.60
2022-07-28T13:15:00.793Z,21.70
2022-07-28T13:17:31.581Z,21.70
2022-07-28T13:20:06.587Z,21.60
2022-07-28T13:22:33.371Z,21.60
2022-07-28T13:25:00.202Z,21.60
2022-07-28T13:27:29.247Z,21.60
2022-07-28T13:29:55.935Z,21.60
2022-07-28T13:32:22.757Z,21.70
2022-07-28T13:34:49.594Z,21.80
2022-07-28T13:37:16.382Z,21.80
2022-07-28T13:39:43.807Z,22.10
2022-07-28T13:42:10.759Z,22.30
2022-07-28T13:44:39.888Z,22.50
2022-07-28T13:47:06.668Z,22.60
2022-07-28T13:49:34.604Z,22.60
2022-07-28T13:52:02.074Z,22.40
2022-07-28T13:54:28.987Z,22.30
2022-07-28T13:56:55.617Z,22.50
2022-07-28T13:59:23.929Z,22.60
2022-07-28T14:01:55.185Z,22.70
2022-07-28T14:04:22.302Z,22.60
2022-07-28T14:06:49.517Z,22.70
2022-07-28T14:09:18.887Z,22.90
2022-07-28T14:11:49.787Z,22.90
2022-07-28T14:14:23.897Z,23.20
2022-07-28T14:16:52.396Z,23.70
2022-07-28T14:19:23.258Z,23.90
2022-07-28T14:22:09.181Z,24.20
2022-07-28T14:24:39.725Z,24.70
2022-07-28T14:27:06.422Z,24.90
2022-07-28T14:29:33.141Z,25.00
2022-07-28T14:31:59.883Z,24.70
2022-07-28T14:34:26.547Z,25.00
2022-07-28T14:36:53.335Z,25.40
2022-07-28T14:39:20.179Z,25.60
2022-07-28T14:41:46.774Z,25.80
2022-07-28T14:44:24.004Z,25.90
2022-07-28T14:46:51.550Z,25.60
2022-07-28T14:49:18.232Z,25.10
2022-07-28T14:51:45.068Z,24.50
2022-07-28T14:54:12.332Z,24.20
2022-07-28T14:56:39.216Z,23.80
2022-07-28T14:59:06.266Z,23.30
2022-07-28T15:01:36.202Z,23.30
2022-07-28T15:04:03.985Z,23.00
2022-07-28T15:06:31.012Z,23.10
2022-07-28T15:08:58.295Z,23.20
2022-07-28T15:11:24.953Z,23.30
2022-07-28T15:13:51.552Z,23.70
2022-07-28T15:16:18.214Z,23.80
2022-07-28T15:18:45.149Z,23.60
2022-07-28T15:21:16.478Z,23.50
2022-07-28T15:23:43.746Z,23.60
2022-07-28T15:26:10.753Z,24.30
2022-07-28T15:28:37.989Z,24.40
2022-07-28T15:31:05.458Z,24.90
2022-07-28T15:33:47.936Z,25.30
2022-07-28T15:36:15.388Z,24.60
2022-07-28T15:38:42.063Z,24.90
2022-07-28T15:41:15.138Z,25.20
2022-07-28T15:43:41.849Z,25.50
2022-07-28T15:46:11.736Z,25.90
2022-07-28T15:48:40.580Z,26.20
2022-07-28T15:51:07.570Z,26.70
2022-07-28T15:53:35.415Z,27.00
2022-07-28T15:56:04.011Z,27.00
2022-07-28T15:58:30.626Z,27.00
2022-07-28T16:00:57.297Z,26.90
2022-07-28T16:03:27.994Z,27.10
2022-07-28T16:05:54.672Z,27.50
2022-07-28T16:08:22.878Z,27.40
2022-07-28T16:10:51.466Z,26.70
2022-07-28T16:13:28.682Z,26.00
2022-07-28T16:16:14.743Z,25.70
2022-07-28T16:18:43.785Z,25.00
2022-07-28T16:21:11.934Z,25.10
2022-07-28T16:23:38.588Z,25.30
2022-07-28T16:26:07.766Z,26.10
2022-07-28T16:28:35.345Z,26.70
2022-07-28T16:31:02.088Z,26.80
2022-07-28T16:33:33.136Z,26.80
2022-07-28T16:36:01.208Z,26.80
2022-07-28T16:38:27.820Z,26.70
2022-07-28T16:40:54.427Z,27.20
2022-07-28T16:43:21.009Z,27.00
2022-07-28T16:45:49.156Z,26.90
2022-07-28T16:48:15.825Z,26.90
2022-07-28T16:50:45.722Z,25.90
2022-07-28T16:53:13.677Z,26.40
2022-07-28T16:55:42.034Z,27.00
2022-07-28T16:58:08.718Z,26.70
2022-07-28T17:00:35.529Z,27.20
2022-07-28T17:03:02.097Z,27.50
2022-07-28T17:05:28.884Z,27.30
2022-07-28T17:07:55.506Z,28.00
2022-07-28T17:10:27.461Z,28.10
2022-07-28T17:12:54.715Z,27.70
2022-07-28T17:15:22.584Z,27.60
2022-07-28T17:17:53.114Z,28.30
2022-07-28T17:20:20.768Z,29.10
2022-07-28T17:22:47.616Z,29.30
2022-07-28T17:28:01.057Z,29.70
2022-07-28T17:30:29.940Z,30.20
2022-07-28T17:32:58.765Z,30.60
2022-07-28T17:35:31.630Z,30.80
2022-07-28T17:38:01.429Z,31.20
2022-07-28T17:40:28.149Z,30.20
2022-07-28T17:42:54.797Z,29.50
2022-07-28T17:45:21.710Z,28.60
2022-07-28T17:47:48.498Z,28.00
2022-07-28T17:50:15.633Z,27.90
2022-07-28T17:52:43.367Z,27.80
2022-07-28T17:55:29.145Z,28.00
2022-07-28T17:58:08.252Z,28.30
2022-07-28T18:00:34.997Z,28.20
2022-07-28T18:03:01.732Z,28.10
2022-07-28T18:05:33.239Z,28.40
2022-07-28T18:07:59.929Z,28.70
2022-07-28T18:10:27.401Z,29.00
2022-07-28T18:12:54.136Z,29.00
2022-07-28T18:15:20.745Z,28.80
2022-07-28T18:17:54.920Z,28.60
2022-07-28T18:20:26.323Z,28.60
2022-07-28T18:22:53.148Z,28.40
2022-07-28T18:25:20.295Z,28.20
2022-07-28T18:27:47.799Z,28.10
2022-07-28T18:30:16.459Z,27.80
2022-07-28T18:32:43.575Z,27.80
2022-07-28T18:35:10.977Z,27.70
2022-07-28T18:37:43.656Z,27.60
2022-07-28T18:40:13.967Z,27.60
2022-07-28T18:42:41.551Z,27.60
2022-07-28T18:45:09.812Z,27.50
2022-07-28T18:47:46.398Z,27.20
2022-07-28T18:50:30.347Z,27.00
2022-07-28T18:52:58.734Z,27.40
2022-07-28T18:55:25.419Z,27.50
2022-07-28T18:57:52.026Z,27.60
2022-07-28T19:00:18.639Z,27.40
2022-07-28T19:02:45.408Z,27.30
2022-07-28T19:05:12.251Z,27.10
2022-07-28T19:07:38.867Z,27.10
2022-07-28T19:10:06.603Z,26.80
2022-07-28T19:12:34.103Z,26.40
2022-07-28T19:15:01.429Z,25.80
2022-07-28T19:17:28.338Z,25.50
2022-07-28T19:19:56.190Z,25.10
2022-07-28T19:22:24.037Z,24.70
2022-07-28T19:24:52.389Z,24.40
2022-07-28T19:27:19.429Z,24.40
2022-07-28T19:29:46.131Z,24.60
2022-07-28T19:32:12.820Z,24.90
2022-07-28T19:34:39.477Z,25.20
2022-07-28T19:37:06.529Z,25.30
2022-07-28T19:39:34.399Z,25.30
2022-07-28T19:42:01.108Z,25.20
2022-07-28T19:44:29.957Z,25.20
2022-07-28T19:47:00.396Z,24.50
2022-07-28T19:49:27.122Z,24.30
2022-07-28T19:51:54.804Z,24.20
2022-07-28T19:54:28.688Z,24.30
2022-07-28T19:56:55.300Z,23.90
2022-07-28T19:59:22.233Z,23.80
2022-07-28T20:01:50.770Z,23.80
2022-07-28T20:04:18.103Z,23.70
2022-07-28T20:06:44.920Z,23.70
2022-07-28T20:09:12.520Z,23.50
2022-07-28T20:11:40.716Z,23.50
2022-07-28T20:14:07.744Z,23.40
2022-07-28T20:16:34.459Z,23.30
2022-07-28T20:19:01.296Z,23.00
2022-07-28T20:21:27.924Z,22.80
2022-07-28T20:23:56.875Z,22.70
2022-07-28T20:26:26.040Z,22.50
2022-07-28T20:28:58.318Z,22.60
2022-07-28T20:31:25.265Z,22.50
2022-07-28T20:33:52.701Z,22.40
2022-07-28T20:36:19.429Z,22.40
2022-07-28T20:38:46.068Z,22.30
2022-07-28T20:41:13.245Z,22.10
2022-07-28T20:43:39.881Z,22.00
2022-07-28T20:46:06.742Z,22.00
2022-07-28T20:48:33.609Z,21.80
2022-07-28T20:51:00.307Z,21.90
2022-07-28T20:53:26.933Z,21.70
2022-07-28T20:55:53.577Z,21.70
2022-07-28T20:58:20.314Z,21.90
2022-07-28T21:00:46.964Z,21.80
2022-07-28T21:03:13.573Z,21.90
2022-07-28T21:05:41.053Z,21.80
2022-07-28T21:08:16.182Z,21.80
2022-07-28T21:10:44.024Z,21.50
2022-07-28T21:13:10.924Z,21.20
2022-07-28T21:15:37.562Z,21.10
2022-07-28T21:18:04.208Z,21.20
2022-07-28T21:20:30.797Z,21.10
2022-07-28T21:22:57.434Z,21.00
2022-07-28T21:25:24.062Z,21.10
2022-07-28T21:28:09.441Z,21.00
2022-07-28T21:30:36.048Z,20.90
2022-07-28T21:33:02.764Z,20.80
2022-07-28T21:35:29.541Z,20.80
2022-07-28T21:37:56.320Z,20.70
2022-07-28T21:40:23.108Z,20.50
2022-07-28T21:42:49.884Z,20.30
2022-07-28T21:45:16.664Z,20.30
2022-07-28T21:47:43.333Z,20.30
2022-07-28T21:50:10.639Z,20.30
2022-07-28T21:52:37.874Z,20.40
2022-07-28T21:55:06.204Z,20.30
2022-07-28T21:57:32.877Z,20.10
2022-07-28T21:59:59.440Z,20.10
2022-07-28T22:02:26.332Z,19.90
2022-07-28T22:04:53.074Z,19.90
2022-07-28T22:07:19.761Z,19.90
2022-07-28T22:09:46.529Z,19.80
2022-07-28T22:12:13.173Z,20.00
2022-07-28T22:14:39.777Z,20.10
2022-07-28T22:17:06.423Z,20.00
2022-07-28T22:19:33.064Z,19.90
2022-07-28T22:22:00.148Z,19.80
2022-07-28T22:24:28.398Z,19.90
2022-07-28T22:26:54.992Z,19.90
2022-07-28T22:29:21.628Z,19.90
2022-07-28T22:31:48.258Z,19.80
2022-07-28T22:34:15.182Z,19.60
2022-07-28T22:36:42.029Z,19.40
2022-07-28T22:39:08.853Z,19.30
2022-07-28T22:41:35.588Z,19.30
2022-07-28T22:44:02.233Z,19.20
2022-07-28T22:46:28.877Z,19.20
2022-07-28T22:48:55.762Z,19.10
2022-07-28T22:51:22.423Z,19.10
2022-07-28T22:53:49.160Z,19.10
2022-07-28T22:56:16.853Z,19.00
2022-07-28T22:58:43.467Z,19.10
2022-07-28T23:01:10.253Z,19.10
2022-07-28T23:03:37.315Z,19.10
2022-07-28T23:06:04.926Z,19.10
2022-07-28T23:08:31.532Z,19.10
2022-07-28T23:10:58.324Z,19.20
2022-07-28T23:13:29.737Z,19.20
2022-07-28T23:15:56.421Z,19.30
2022-07-28T23:21:14.224Z,19.10
2022-07-28T23:23:40.851Z,19.10
2022-07-28T23:26:07.546Z,19.00
2022-07-28T23:28:36.207Z,18.90
2022-07-28T23:31:03.925Z,18.80
2022-07-28T23:33:55.164Z,18.80
2022-07-28T23:36:26.110Z,18.80
2022-07-28T23:38:54.478Z,18.70
2022-07-28T23:41:21.353Z,18.70
2022-07-28T23:43:47.979Z,18.70
2022-07-28T23:46:14.858Z,18.50
2022-07-28T23:48:42.776Z,18.50
2022-07-28T23:51:09.664Z,18.60
2022-07-28T23:53:37.413Z,18.50
2022-07-28T23:56:04.345Z,18.50
2022-07-28T23:58:30.912Z,18.50
